Time;durP1;ratioP1;P1;durP2;ratioP2;P2;SDS_P1;SDS_P2;PMS_P1;PMS_P2;Temp;Humidity;BMP_temperature;BMP_pressure;BME280_temperature;BME280_humidity;BME280_pressure;Samples;Min_cycle;Max_cycle;Signal;HPM_P1;HPM_P2
2021/08/06 00:02:05;;;;;;;1.75;1.00;;;;;;;;;;3617486;39;20063;-46
2021/08/06 00:04:35;;;;;;;2.03;1.08;;;;;;;;;;3610917;39;20135;-51
2021/08/06 00:07:03;;;;;;;6.18;0.95;;;;;;;;;;3607521;39;20087;-49
2021/08/06 00:09:34;;;;;;;1.77;1.02;;;;;;;;;;3607605;39;20077;-46
2021/08/06 00:12:02;;;;;;;1.98;1.30;;;;;;;;;;3607276;39;20047;-47
2021/08/06 00:14:29;;;;;;;2.92;0.90;;;;;;;;;;3607661;39;20055;-48
2021/08/06 00:16:57;;;;;;;1.00;0.65;;;;;;;;;;3607609;39;20040;-49
2021/08/06 00:19:25;;;;;;;1.23;0.90;;;;;;;;;;3607520;39;20051;-46
2021/08/06 00:21:52;;;;;;;1.77;1.15;;;;;;;;;;3606890;39;20095;-48
2021/08/06 00:24:19;;;;;;;1.50;1.10;;;;;;;;;;3607328;39;20051;-49
2021/08/06 00:26:47;;;;;;;3.13;1.25;;;;;;;;;;3607721;39;20087;-45
2021/08/06 00:29:14;;;;;;;1.67;0.90;;;;;;;;;;3605506;39;20059;-45
2021/08/06 00:31:41;;;;;;;1.30;0.88;;;;;;;;;;3604654;39;20058;-45
2021/08/06 00:34:09;;;;;;;1.60;0.98;;;;;;;;;;3593219;39;20047;-49
2021/08/06 00:36:41;;;;;;;3.60;1.30;;;;;;;;;;3605740;39;20058;-53
2021/08/06 00:39:10;;;;;;;1.95;1.10;;;;;;;;;;3606139;39;20071;-50
2021/08/06 00:41:39;;;;;;;3.13;0.88;;;;;;;;;;3607003;39;20420;-44
2021/08/06 00:44:07;;;;;;;1.00;0.70;;;;;;;;;;3606949;39;20063;-55
2021/08/06 00:46:35;;;;;;;3.90;1.00;;;;;;;;;;3606540;39;20052;-58
2021/08/06 00:49:04;;;;;;;1.92;0.90;;;;;;;;;;3606336;39;20039;-58
2021/08/06 00:51:38;;;;;;;2.00;0.90;;;;;;;;;;3607254;39;20064;-44
2021/08/06 00:54:05;;;;;;;1.15;0.88;;;;;;;;;;3606983;39;20051;-46
2021/08/06 00:56:47;;;;;;;1.98;0.90;;;;;;;;;;3605738;39;20408;-56
2021/08/06 00:59:16;;;;;;;1.57;1.00;;;;;;;;;;3616293;39;20422;-47
2021/08/06 01:01:51;;;;;;;1.42;1.00;;;;;;;;;;3616822;39;20135;-44
2021/08/06 01:04:34;;;;;;;1.48;1.00;;;;;;;;;;3609446;39;20071;-49
2021/08/06 01:07:06;;;;;;;1.08;0.80;;;;;;;;;;3605981;39;20048;-47
2021/08/06 01:09:46;;;;;;;;;;;;;;;;;;3606981;39;20060;-46
2021/08/06 01:12:32;;;;;;;1.55;0.90;;;;;;;;;;3607212;39;19938;-50
2021/08/06 01:15:04;;;;;;;1.25;1.00;;;;;;;;;;3605514;39;20059;-44
2021/08/06 01:17:40;;;;;;;1.98;1.05;;;;;;;;;;3605381;39;20438;-46
2021/08/06 01:20:25;;;;;;;1.52;0.88;;;;;;;;;;3605448;39;20157;-55
2021/08/06 01:23:01;;;;;;;1.77;1.00;;;;;;;;;;3614450;39;20048;-49
2021/08/06 01:25:55;;;;;;;1.90;1.13;;;;;;;;;;3607060;39;20100;-46
2021/08/06 01:28:43;;;;;;;;;;;;;;;;;;3607722;39;20050;-45
2021/08/06 01:31:12;;;;;;;1.30;0.88;;;;;;;;;;3606961;39;19963;-44
2021/08/06 01:33:43;;;;;;;4.47;0.83;;;;;;;;;;3606296;39;20059;-46
2021/08/06 01:36:18;;;;;;;1.67;0.70;;;;;;;;;;3605662;39;20297;-56
2021/08/06 01:38:47;;;;;;;1.08;0.80;;;;;;;;;;3605840;39;20323;-43
2021/08/06 01:41:37;;;;;;;4.28;1.05;;;;;;;;;;3606125;39;20466;-53
2021/08/06 01:44:11;;;;;;;2.05;1.00;;;;;;;;;;3606565;39;20087;-45
2021/08/06 01:46:48;;;;;;;1.55;1.02;;;;;;;;;;3605494;39;20067;-49
2021/08/06 01:49:22;;;;;;;2.67;1.08;;;;;;;;;;3606588;39;20462;-47
2021/08/06 01:51:54;;;;;;;1.77;1.10;;;;;;;;;;3605708;39;20059;-49
2021/08/06 01:54:29;;;;;;;1.75;0.70;;;;;;;;;;3605495;39;20113;-47
2021/08/06 01:56:59;;;;;;;1.92;0.90;;;;;;;;;;3608171;39;20804;-45
2021/08/06 01:59:30;;;;;;;1.98;1.05;;;;;;;;;;3615615;39;20127;-44
2021/08/06 02:02:01;;;;;;;1.65;0.70;;;;;;;;;;3615714;39;20319;-46
2021/08/06 02:04:30;;;;;;;1.55;1.00;;;;;;;;;;3607562;39;20056;-48
2021/08/06 02:07:10;;;;;;;2.00;1.00;;;;;;;;;;3595432;40;20059;-49
2021/08/06 02:09:39;;;;;;;2.35;0.90;;;;;;;;;;3595806;40;20056;-46
2021/08/06 02:12:12;;;;;;;1.85;0.80;;;;;;;;;;3596277;39;20073;-52
2021/08/06 02:14:48;;;;;;;2.35;1.13;;;;;;;;;;3595557;40;20055;-47
2021/08/06 02:17:20;;;;;;;1.90;1.02;;;;;;;;;;3595611;40;20446;-47
2021/08/06 02:19:50;;;;;;;2.88;0.85;;;;;;;;;;3595457;40;20052;-58
2021/08/06 02:22:18;;;;;;;2.60;0.65;;;;;;;;;;3595217;40;20067;-52
2021/08/06 02:24:53;;;;;;;2.00;1.20;;;;;;;;;;3595460;40;20055;-57
2021/08/06 02:27:27;;;;;;;3.80;1.08;;;;;;;;;;3603843;39;20153;-57
2021/08/06 02:29:59;;;;;;;2.88;1.00;;;;;;;;;;3605469;39;20055;-47
2021/08/06 02:32:30;;;;;;;2.53;0.95;;;;;;;;;;3606329;39;20790;-49
2021/08/06 02:35:01;;;;;;;3.30;0.80;;;;;;;;;;3607216;39;20095;-54
2021/08/06 02:37:30;;;;;;;1.80;1.02;;;;;;;;;;3607921;39;20052;-53
2021/08/06 02:39:57;;;;;;;1.75;1.10;;;;;;;;;;3607934;39;20062;-45
2021/08/06 02:42:24;;;;;;;1.67;0.88;;;;;;;;;;3606620;39;20052;-46
2021/08/06 02:44:53;;;;;;;1.23;0.88;;;;;;;;;;3607755;39;20051;-44
2021/08/06 02:47:20;;;;;;;1.60;1.00;;;;;;;;;;3608021;39;20058;-47
2021/08/06 02:49:47;;;;;;;1.40;1.02;;;;;;;;;;3606979;39;20340;-56
2021/08/06 02:52:15;;;;;;;1.63;0.93;;;;;;;;;;3607177;39;20103;-49
2021/08/06 02:54:42;;;;;;;2.55;0.70;;;;;;;;;;3608339;39;20048;-52
2021/08/06 02:57:10;;;;;;;1.38;0.77;;;;;;;;;;3610241;39;20052;-45
2021/08/06 02:59:38;;;;;;;1.27;0.75;;;;;;;;;;3616885;39;20116;-50
2021/08/06 03:02:06;;;;;;;3.40;1.10;;;;;;;;;;3617816;39;20050;-58
2021/08/06 03:04:35;;;;;;;6.85;1.02;;;;;;;;;;3608794;39;20071;-57
2021/08/06 03:07:08;;;;;;;4.40;1.42;;;;;;;;;;3596953;39;20083;-57
2021/08/06 03:09:35;;;;;;;4.78;2.25;;;;;;;;;;3594458;39;20417;-48
2021/08/06 03:12:03;;;;;;;1.60;0.90;;;;;;;;;;3607984;39;20055;-58
2021/08/06 03:14:35;;;;;;;2.97;1.00;;;;;;;;;;3607599;39;20059;-53
2021/08/06 03:17:03;;;;;;;2.92;0.90;;;;;;;;;;3618164;39;20112;-50
2021/08/06 03:19:35;;;;;;;3.47;1.50;;;;;;;;;;3618104;39;20051;-54
2021/08/06 03:22:03;;;;;;;2.30;0.98;;;;;;;;;;3615478;39;20051;-50
2021/08/06 03:24:34;;;;;;;1.63;0.85;;;;;;;;;;3616938;39;20059;-45
2021/08/06 03:27:02;;;;;;;4.38;1.95;;;;;;;;;;3610075;39;20055;-43
2021/08/06 03:29:29;;;;;;;2.90;1.52;;;;;;;;;;3616957;39;20051;-59
2021/08/06 03:31:57;;;;;;;2.10;1.35;;;;;;;;;;3616779;39;20416;-49
2021/08/06 03:34:24;;;;;;;6.57;1.65;;;;;;;;;;3616744;39;20078;-59
2021/08/06 03:36:52;;;;;;;2.33;1.38;;;;;;;;;;3616555;39;20458;-51
2021/08/06 03:39:21;;;;;;;1.52;0.93;;;;;;;;;;3616556;39;20132;-44
2021/08/06 03:41:50;;;;;;;1.63;0.98;;;;;;;;;;3616191;39;20070;-42
2021/08/06 03:44:18;;;;;;;1.77;0.93;;;;;;;;;;3616436;39;20065;-49
2021/08/06 03:46:46;;;;;;;1.73;1.00;;;;;;;;;;3616496;39;20058;-45
2021/08/06 03:49:13;;;;;;;1.30;0.80;;;;;;;;;;3616565;39;20055;-53
2021/08/06 03:51:41;;;;;;;12.40;5.63;;;;;;;;;;3617991;39;20135;-47
2021/08/06 03:54:08;;;;;;;14.10;6.90;;;;;;;;;;3608193;39;20500;-51
2021/08/06 03:56:37;;;;;;;23.08;11.80;;;;;;;;;;3616361;39;20327;-56
2021/08/06 03:59:05;;;;;;;10.98;4.38;;;;;;;;;;3616812;39;20143;-49
2021/08/06 04:01:34;;;;;;;4.60;2.10;;;;;;;;;;3616027;39;20059;-53
2021/08/06 04:04:02;;;;;;;3.47;1.63;;;;;;;;;;3610635;39;20084;-51
2021/08/06 04:06:29;;;;;;;3.97;1.48;;;;;;;;;;3597328;39;20063;-54
2021/08/06 04:08:56;;;;;;;2.67;1.45;;;;;;;;;;3600260;39;20048;-53
2021/08/06 04:11:24;;;;;;;2.33;1.10;;;;;;;;;;3607208;39;20140;-49
2021/08/06 04:13:51;;;;;;;2.00;1.00;;;;;;;;;;3607588;39;20056;-50
2021/08/06 04:16:18;;;;;;;1.83;0.98;;;;;;;;;;3607377;39;20064;-48
2021/08/06 04:18:46;;;;;;;1.48;1.02;;;;;;;;;;3607293;39;20055;-51
2021/08/06 04:21:13;;;;;;;1.17;0.90;;;;;;;;;;3606331;39;20055;-48
2021/08/06 04:23:41;;;;;;;1.25;0.85;;;;;;;;;;3607373;39;20055;-50
2021/08/06 04:26:08;;;;;;;2.15;1.00;;;;;;;;;;3605924;39;20435;-49
2021/08/06 04:28:36;;;;;;;2.45;1.15;;;;;;;;;;3607858;39;20051;-52
2021/08/06 04:31:05;;;;;;;1.65;1.15;;;;;;;;;;3606125;39;20059;-49
2021/08/06 04:33:32;;;;;;;2.13;1.13;;;;;;;;;;3606736;39;20051;-49
2021/08/06 04:36:00;;;;;;;1.90;1.13;;;;;;;;;;3606651;39;20051;-53
2021/08/06 04:38:28;;;;;;;2.22;1.52;;;;;;;;;;3606413;39;20420;-53
2021/08/06 04:40:55;;;;;;;2.40;1.20;;;;;;;;;;3607770;39;20124;-51
2021/08/06 04:43:24;;;;;;;2.13;1.40;;;;;;;;;;3606430;39;20067;-51
2021/08/06 04:45:51;;;;;;;21.83;11.25;;;;;;;;;;3604286;39;20060;-50
2021/08/06 04:48:23;;;;;;;28.33;15.98;;;;;;;;;;3596214;40;20132;-51
2021/08/06 04:50:52;;;;;;;;;;;;;;;;;;3598005;39;20048;-54
2021/08/06 04:53:19;;;;;;;4.32;1.92;;;;;;;;;;3595635;40;19927;-48
2021/08/06 04:55:47;;;;;;;2.22;1.27;;;;;;;;;;3596566;40;20096;-52
2021/08/06 04:58:14;;;;;;;3.75;1.38;;;;;;;;;;3597130;40;20056;-48
2021/08/06 05:00:42;;;;;;;2.35;1.35;;;;;;;;;;3596995;39;20093;-46
2021/08/06 05:03:15;;;;;;;1.92;1.17;;;;;;;;;;3598744;39;20052;-50
2021/08/06 05:05:49;;;;;;;2.08;1.20;;;;;;;;;;3615987;39;20109;-45
2021/08/06 05:08:17;;;;;;;2.42;1.40;;;;;;;;;;3615775;39;20067;-49
2021/08/06 05:10:44;;;;;;;2.63;1.52;;;;;;;;;;3615099;39;20055;-50
2021/08/06 05:13:11;;;;;;;3.90;1.10;;;;;;;;;;3615087;39;20161;-49
2021/08/06 05:15:40;;;;;;;2.10;1.30;;;;;;;;;;3599443;39;20047;-48
2021/08/06 05:18:08;;;;;;;1.60;1.10;;;;;;;;;;3595451;40;20051;-50
2021/08/06 05:20:36;;;;;;;1.65;1.15;;;;;;;;;;3595702;40;20059;-51
2021/08/06 05:23:04;;;;;;;2.38;1.20;;;;;;;;;;3596293;39;20064;-50
2021/08/06 05:25:32;;;;;;;2.05;1.27;;;;;;;;;;3607122;39;20099;-49
2021/08/06 05:28:00;;;;;;;4.03;1.25;;;;;;;;;;3605789;39;20074;-50
2021/08/06 05:30:27;;;;;;;2.03;1.17;;;;;;;;;;3605460;39;20047;-54
2021/08/06 05:32:55;;;;;;;2.72;1.20;;;;;;;;;;3605632;39;20059;-52
2021/08/06 05:35:25;;;;;;;2.35;1.33;;;;;;;;;;3605820;39;20051;-50
2021/08/06 05:37:56;;;;;;;2.67;1.20;;;;;;;;;;3605628;39;20054;-57
2021/08/06 05:40:24;;;;;;;1.30;1.00;;;;;;;;;;3606927;39;20054;-51
2021/08/06 05:42:51;;;;;;;2.78;1.13;;;;;;;;;;3606164;39;20063;-47
2021/08/06 05:45:22;;;;;;;86.78;44.03;;;;;;;;;;3605525;39;20158;-48
2021/08/06 05:47:53;;;;;;;22.95;13.20;;;;;;;;;;3605686;39;20064;-50
2021/08/06 05:50:27;;;;;;;5.55;2.25;;;;;;;;;;3603724;39;20039;-54
2021/08/06 05:52:55;;;;;;;2.78;1.63;;;;;;;;;;3606185;39;20064;-63
2021/08/06 05:55:22;;;;;;;2.05;1.23;;;;;;;;;;3605076;39;20055;-50
2021/08/06 05:57:57;;;;;;;3.47;1.30;;;;;;;;;;3604733;39;20047;-51
2021/08/06 06:00:25;;;;;;;3.00;1.33;;;;;;;;;;3605494;39;20464;-49
2021/08/06 06:03:01;;;;;;;3.85;1.48;;;;;;;;;;3604660;39;20064;-52
2021/08/06 06:05:46;;;;;;;2.05;1.00;;;;;;;;;;3594459;39;20487;-51
2021/08/06 06:08:13;;;;;;;2.95;1.05;;;;;;;;;;3597184;40;20729;-49
2021/08/06 06:10:42;;;;;;;2.17;1.13;;;;;;;;;;3595866;40;20052;-48
2021/08/06 06:13:10;;;;;;;1.55;0.80;;;;;;;;;;3597038;40;20056;-49
2021/08/06 06:15:38;;;;;;;1.58;1.00;;;;;;;;;;3598174;39;20439;-58
2021/08/06 06:18:07;;;;;;;1.88;1.20;;;;;;;;;;3597010;40;20056;-49
2021/08/06 06:20:34;;;;;;;1.65;1.15;;;;;;;;;;3597020;39;20257;-49
2021/08/06 06:23:03;;;;;;;2.63;1.02;;;;;;;;;;3598518;39;20559;-53
2021/08/06 06:25:30;;;;;;;1.77;1.17;;;;;;;;;;3597963;39;20337;-49
2021/08/06 06:28:02;;;;;;;3.17;1.10;;;;;;;;;;3597991;39;20752;-50
2021/08/06 06:30:39;;;;;;;2.13;1.02;;;;;;;;;;3596957;40;20813;-58
2021/08/06 06:33:07;;;;;;;1.65;1.02;;;;;;;;;;3596683;40;20442;-46
2021/08/06 06:35:36;;;;;;;1.13;0.75;;;;;;;;;;3596632;39;20063;-49
2021/08/06 06:38:04;;;;;;;2.15;1.08;;;;;;;;;;3597692;39;20105;-46
2021/08/06 06:40:33;;;;;;;2.00;0.88;;;;;;;;;;3596966;40;20141;-51
2021/08/06 06:43:06;;;;;;;2.75;1.10;;;;;;;;;;3597146;40;20060;-49
2021/08/06 06:45:34;;;;;;;1.98;1.05;;;;;;;;;;3596660;40;20051;-49
2021/08/06 06:48:02;;;;;;;1.10;0.90;;;;;;;;;;3596917;40;20071;-50
2021/08/06 06:50:30;;;;;;;1.15;0.90;;;;;;;;;;3596496;40;20122;-52
2021/08/06 06:52:59;;;;;;;1.73;1.00;;;;;;;;;;3596582;40;20059;-50
2021/08/06 06:55:26;;;;;;;1.90;0.80;;;;;;;;;;3596447;40;20051;-48
2021/08/06 06:57:57;;;;;;;2.60;0.68;;;;;;;;;;3596725;40;20062;-58
2021/08/06 07:00:32;;;;;;;3.20;0.95;;;;;;;;;;3596718;40;20085;-48
2021/08/06 07:03:03;;;;;;;1.88;0.80;;;;;;;;;;3596886;40;20062;-49
2021/08/06 07:05:31;;;;;;;2.15;1.00;;;;;;;;;;3597899;39;20047;-48
2021/08/06 07:08:01;;;;;;;2.13;1.15;;;;;;;;;;3595938;40;20056;-50
2021/08/06 07:10:31;;;;;;;1.77;0.90;;;;;;;;;;3595682;40;20059;-49
2021/08/06 07:12:59;;;;;;;1.33;0.73;;;;;;;;;;3595684;40;20073;-49
2021/08/06 07:15:27;;;;;;;2.58;1.52;;;;;;;;;;3595361;40;20063;-51
2021/08/06 07:17:55;;;;;;;1.92;1.15;;;;;;;;;;3595059;39;20044;-51
2021/08/06 07:20:27;;;;;;;1.27;0.70;;;;;;;;;;3595369;40;20071;-51
2021/08/06 07:22:56;;;;;;;1.20;0.88;;;;;;;;;;3595470;40;20545;-65
2021/08/06 07:25:24;;;;;;;2.85;0.80;;;;;;;;;;3595358;40;20123;-54
2021/08/06 07:27:57;;;;;;;3.33;0.80;;;;;;;;;;3596018;40;20616;-50
2021/08/06 07:30:25;;;;;;;1.13;0.60;;;;;;;;;;3597597;39;20088;-52
2021/08/06 07:32:53;;;;;;;1.65;0.77;;;;;;;;;;3596126;40;20059;-50
2021/08/06 07:35:24;;;;;;;0.70;0.50;;;;;;;;;;3605104;39;20133;-54
2021/08/06 07:37:53;;;;;;;1.05;0.57;;;;;;;;;;3597721;39;20048;-52
2021/08/06 07:40:20;;;;;;;3.38;1.10;;;;;;;;;;3596689;39;20064;-50
2021/08/06 07:42:54;;;;;;;2.90;1.23;;;;;;;;;;3597119;40;20044;-51
2021/08/06 07:45:24;;;;;;;1.23;0.98;;;;;;;;;;3596624;40;20152;-51
2021/08/06 07:47:52;;;;;;;1.50;0.90;;;;;;;;;;3596276;40;20509;-52
2021/08/06 07:50:20;;;;;;;1.33;0.95;;;;;;;;;;3588023;40;20044;-53
2021/08/06 07:52:48;;;;;;;1.30;0.80;;;;;;;;;;3597449;40;20409;-54
2021/08/06 07:55:18;;;;;;;0.80;0.70;;;;;;;;;;3596386;40;20064;-53
2021/08/06 07:57:47;;;;;;;1.35;0.88;;;;;;;;;;3597292;39;20063;-51
2021/08/06 08:00:15;;;;;;;2.40;0.80;;;;;;;;;;3595705;40;20063;-54
2021/08/06 08:02:43;;;;;;;1.83;0.80;;;;;;;;;;3596475;40;20052;-49
2021/08/06 08:05:20;;;;;;;1.70;0.80;;;;;;;;;;3623808;39;20108;-54
2021/08/06 08:07:51;;;;;;;1.00;0.80;;;;;;;;;;3616773;39;20052;-54
2021/08/06 08:10:25;;;;;;;1.05;0.82;;;;;;;;;;3612862;39;20067;-49
2021/08/06 08:13:12;;;;;;;2.47;0.77;;;;;;;;;;3607529;39;20055;-55
2021/08/06 08:15:42;;;;;;;1.38;0.70;;;;;;;;;;3606060;39;20047;-53
2021/08/06 08:18:10;;;;;;;1.05;0.77;;;;;;;;;;3606165;39;20073;-52
2021/08/06 08:20:37;;;;;;;1.52;0.90;;;;;;;;;;3606543;39;20054;-54
2021/08/06 08:23:04;;;;;;;1.05;0.77;;;;;;;;;;3605974;39;20402;-53
2021/08/06 08:25:33;;;;;;;1.27;0.77;;;;;;;;;;3606409;39;20051;-52
2021/08/06 08:28:00;;;;;;;1.58;1.02;;;;;;;;;;3607410;39;20055;-58
2021/08/06 08:30:28;;;;;;;2.65;0.80;;;;;;;;;;3605822;39;20312;-52
2021/08/06 08:33:00;;;;;;;5.28;0.80;;;;;;;;;;3606081;39;20073;-51
2021/08/06 08:35:28;;;;;;;2.15;0.73;;;;;;;;;;3607551;39;20087;-52
2021/08/06 08:37:56;;;;;;;1.05;0.77;;;;;;;;;;3606913;39;20083;-57
2021/08/06 08:40:25;;;;;;;1.13;0.80;;;;;;;;;;3606384;39;20144;-49
2021/08/06 08:42:53;;;;;;;1.30;0.80;;;;;;;;;;3607753;39;20055;-48
2021/08/06 08:45:24;;;;;;;1.52;0.80;;;;;;;;;;3605635;39;20062;-52
2021/08/06 08:47:52;;;;;;;1.00;0.65;;;;;;;;;;3607369;39;20099;-52
2021/08/06 08:50:21;;;;;;;1.25;0.63;;;;;;;;;;3605889;39;20047;-54
2021/08/06 08:52:49;;;;;;;1.58;0.77;;;;;;;;;;3606926;39;20132;-50
2021/08/06 08:55:16;;;;;;;0.75;0.57;;;;;;;;;;3606081;39;20056;-54
2021/08/06 08:57:45;;;;;;;1.40;0.75;;;;;;;;;;3605983;39;20071;-54
2021/08/06 09:00:15;;;;;;;1.95;0.70;;;;;;;;;;3606063;39;20397;-54
2021/08/06 09:02:46;;;;;;;1.10;0.60;;;;;;;;;;3606099;39;20094;-53
2021/08/06 09:05:14;;;;;;;1.48;0.70;;;;;;;;;;3604480;39;20051;-54
2021/08/06 09:07:49;;;;;;;1.27;0.80;;;;;;;;;;3596145;40;20076;-52
2021/08/06 09:10:28;;;;;;;1.92;0.70;;;;;;;;;;3595974;40;20119;-51
2021/08/06 09:13:22;;;;;;;0.68;0.50;;;;;;;;;;3595691;40;20056;-53
2021/08/06 09:16:04;;;;;;;1.23;0.50;;;;;;;;;;3595782;40;20084;-49
2021/08/06 09:18:38;;;;;;;2.58;0.68;;;;;;;;;;3595935;40;20056;-59
2021/08/06 09:21:14;;;;;;;2.03;0.60;;;;;;;;;;3597099;39;20062;-53
2021/08/06 09:23:57;;;;;;;1.02;0.60;;;;;;;;;;3600628;39;20136;-53
2021/08/06 09:26:27;;;;;;;1.63;0.70;;;;;;;;;;3606897;39;20054;-49
2021/08/06 09:29:01;;;;;;;0.93;0.60;;;;;;;;;;3606980;39;20052;-50
2021/08/06 09:31:30;;;;;;;0.63;0.50;;;;;;;;;;3606279;39;20085;-51
2021/08/06 09:34:13;;;;;;;1.20;0.77;;;;;;;;;;3607046;39;20058;-51
2021/08/06 09:37:11;;;;;;;0.90;0.63;;;;;;;;;;3607014;39;20393;-52
2021/08/06 09:39:43;;;;;;;1.17;0.70;;;;;;;;;;3607166;39;20051;-53
2021/08/06 09:42:32;;;;;;;2.38;0.68;;;;;;;;;;3606656;39;20421;-54
2021/08/06 09:45:07;;;;;;;1.27;0.60;;;;;;;;;;3614222;39;20062;-54
2021/08/06 09:47:37;;;;;;;2.38;1.10;;;;;;;;;;3606713;39;20058;-52
2021/08/06 09:50:11;;;;;;;2.85;0.90;;;;;;;;;;3607010;39;20039;-52
2021/08/06 09:52:43;;;;;;;0.77;0.60;;;;;;;;;;3605490;39;20067;-52
2021/08/06 09:55:22;;;;;;;1.02;0.60;;;;;;;;;;3606376;39;20059;-52
2021/08/06 09:57:51;;;;;;;1.63;0.50;;;;;;;;;;3606925;39;20052;-52
2021/08/06 10:00:21;;;;;;;1.88;0.70;;;;;;;;;;3606667;39;20063;-53
2021/08/06 10:02:49;;;;;;;2.58;2.05;;;;;;;;;;3606053;39;20047;-53
2021/08/06 10:05:20;;;;;;;2.17;1.48;;;;;;;;;;3616125;39;20493;-54
2021/08/06 10:07:53;;;;;;;1.00;0.80;;;;;;;;;;3616831;39;20051;-52
2021/08/06 10:10:27;;;;;;;1.25;0.60;;;;;;;;;;3616907;39;20103;-51
2021/08/06 10:12:54;;;;;;;0.88;0.70;;;;;;;;;;3617107;39;20420;-56
2021/08/06 10:15:23;;;;;;;1.08;0.60;;;;;;;;;;3616670;39;20051;-53
2021/08/06 10:17:53;;;;;;;1.00;0.63;;;;;;;;;;3616903;39;20047;-53
2021/08/06 10:20:23;;;;;;;0.82;0.60;;;;;;;;;;3607441;39;20120;-55
2021/08/06 10:22:52;;;;;;;1.95;0.60;;;;;;;;;;3617055;39;20504;-51
2021/08/06 10:25:22;;;;;;;1.55;0.50;;;;;;;;;;3616215;39;20524;-52
2021/08/06 10:27:50;;;;;;;1.15;0.65;;;;;;;;;;3616495;39;20051;-54
2021/08/06 10:30:32;;;;;;;0.65;0.52;;;;;;;;;;3617236;39;20083;-54
2021/08/06 10:33:26;;;;;;;3.45;0.68;;;;;;;;;;3616082;39;20432;-53
2021/08/06 10:35:55;;;;;;;0.75;0.50;;;;;;;;;;3617007;39;20155;-53
2021/08/06 10:38:45;;;;;;;1.05;0.50;;;;;;;;;;3615954;39;20047;-50
2021/08/06 10:41:19;;;;;;;1.15;0.57;;;;;;;;;;3617033;39;20047;-49
2021/08/06 10:44:00;;;;;;;1.27;0.65;;;;;;;;;;3616380;39;20139;-52
2021/08/06 10:46:48;;;;;;;1.63;0.60;;;;;;;;;;3616647;39;20047;-50
2021/08/06 10:49:15;;;;;;;1.08;0.60;;;;;;;;;;3616717;39;20672;-51
2021/08/06 10:51:43;;;;;;;1.08;0.60;;;;;;;;;;3616544;39;20079;-53
2021/08/06 10:54:15;;;;;;;0.93;0.60;;;;;;;;;;3617605;39;20059;-54
2021/08/06 10:56:44;;;;;;;0.85;0.60;;;;;;;;;;3618177;39;20050;-52
2021/08/06 10:59:14;;;;;;;1.05;0.60;;;;;;;;;;3617614;39;20066;-54
2021/08/06 11:01:46;;;;;;;3.13;0.88;;;;;;;;;;3618349;39;20050;-52
2021/08/06 11:04:16;;;;;;;1.20;0.70;;;;;;;;;;3613834;39;20456;-54
2021/08/06 11:06:52;;;;;;;1.33;0.60;;;;;;;;;;3607964;39;20043;-47
2021/08/06 11:09:26;;;;;;;2.47;0.70;;;;;;;;;;3607943;39;20055;-53
2021/08/06 11:12:05;;;;;;;2.05;0.77;;;;;;;;;;3607635;39;20066;-51
2021/08/06 11:14:35;;;;;;;2.20;0.90;;;;;;;;;;3607925;39;20091;-52
2021/08/06 11:17:21;;;;;;;1.30;0.70;;;;;;;;;;3606372;39;20071;-53
2021/08/06 11:19:57;;;;;;;1.40;0.65;;;;;;;;;;3608066;39;20051;-53
2021/08/06 11:22:24;;;;;;;1.00;0.47;;;;;;;;;;3608227;39;20048;-51
2021/08/06 11:24:59;;;;;;;1.08;0.70;;;;;;;;;;3607731;39;20091;-54
2021/08/06 11:27:36;;;;;;;0.57;0.50;;;;;;;;;;3607267;39;20092;-51
2021/08/06 11:30:32;;;;;;;1.00;0.60;;;;;;;;;;3607870;39;20122;-51
2021/08/06 11:33:03;;;;;;;0.93;0.70;;;;;;;;;;3607724;39;20052;-53
2021/08/06 11:35:37;;;;;;;1.25;0.68;;;;;;;;;;3606190;39;20048;-52
2021/08/06 11:38:07;;;;;;;2.08;0.70;;;;;;;;;;3607227;39;20066;-49
2021/08/06 11:40:44;;;;;;;2.20;0.73;;;;;;;;;;3608073;39;20051;-53
2021/08/06 11:43:17;;;;;;;0.60;0.50;;;;;;;;;;3608026;39;20057;-50
2021/08/06 11:45:47;;;;;;;1.20;0.70;;;;;;;;;;3607727;39;20056;-52
2021/08/06 11:48:14;;;;;;;1.00;0.70;;;;;;;;;;3607726;39;20074;-50
2021/08/06 11:50:45;;;;;;;0.77;0.57;;;;;;;;;;3607577;39;20128;-50
2021/08/06 11:53:20;;;;;;;1.23;0.60;;;;;;;;;;3607888;39;20103;-54
2021/08/06 11:55:50;;;;;;;0.77;0.60;;;;;;;;;;3607248;39;20043;-49
2021/08/06 11:58:31;;;;;;;1.15;0.65;;;;;;;;;;3607163;39;20043;-54
2021/08/06 12:00:58;;;;;;;0.82;0.52;;;;;;;;;;3606969;39;20152;-54
2021/08/06 12:03:26;;;;;;;2.67;0.60;;;;;;;;;;3608996;39;20062;-53
2021/08/06 12:06:02;;;;;;;1.15;0.70;;;;;;;;;;3617509;39;20720;-54
2021/08/06 12:08:32;;;;;;;1.05;0.70;;;;;;;;;;3617106;39;20051;-56
2021/08/06 12:11:05;;;;;;;0.93;0.63;;;;;;;;;;3616839;39;20047;-49
2021/08/06 12:13:41;;;;;;;0.80;0.60;;;;;;;;;;3607837;39;20417;-52
2021/08/06 12:16:14;;;;;;;1.48;0.63;;;;;;;;;;3606679;39;20080;-50
2021/08/06 12:18:55;;;;;;;4.03;0.70;;;;;;;;;;3607177;39;20048;-58
2021/08/06 12:21:41;;;;;;;1.20;0.80;;;;;;;;;;3607693;39;20055;-58
2021/08/06 12:24:11;;;;;;;1.00;0.75;;;;;;;;;;3607044;39;20062;-59
2021/08/06 12:26:40;;;;;;;1.30;0.73;;;;;;;;;;3607332;39;20051;-59
2021/08/06 12:29:27;;;;;;;1.13;0.70;;;;;;;;;;3607101;39;20421;-60
2021/08/06 12:31:56;;;;;;;4.82;2.13;;;;;;;;;;3607505;39;20047;-56
2021/08/06 12:34:29;;;;;;;100.50;66.60;;;;;;;;;;3606776;39;20344;-56
2021/08/06 12:37:07;;;;;;;3.85;2.33;;;;;;;;;;3607044;39;20108;-55
2021/08/06 12:39:47;;;;;;;1.10;0.77;;;;;;;;;;3607259;39;20319;-53
2021/08/06 12:42:29;;;;;;;1.35;0.90;;;;;;;;;;3606904;39;20128;-54
2021/08/06 12:45:02;;;;;;;1.30;0.90;;;;;;;;;;3607581;39;20424;-53
2021/08/06 12:47:52;;;;;;;1.65;0.70;;;;;;;;;;3607254;39;20063;-54
2021/08/06 12:50:25;;;;;;;1.48;0.80;;;;;;;;;;3606944;39;20052;-55
2021/08/06 12:53:11;;;;;;;1.00;0.68;;;;;;;;;;3607125;39;20060;-54
2021/08/06 12:55:40;;;;;;;1.02;0.68;;;;;;;;;;3600641;39;20737;-48
2021/08/06 12:58:11;;;;;;;0.98;0.57;;;;;;;;;;3602181;39;20320;-50
2021/08/06 13:00:45;;;;;;;0.93;0.57;;;;;;;;;;3584102;39;20286;-53
2021/08/06 13:03:21;;;;;;;0.90;0.50;;;;;;;;;;3575374;39;20183;-54
2021/08/06 13:05:49;;;;;;;1.90;0.70;;;;;;;;;;3596853;40;20051;-56
2021/08/06 13:08:22;;;;;;;1.38;0.80;;;;;;;;;;3596813;39;20453;-56
2021/08/06 13:10:50;;;;;;;;;;;;;;;;;;3597376;39;20421;-56
2021/08/06 13:13:26;;;;;;;0.82;0.47;;;;;;;;;;3596459;39;19928;-55
2021/08/06 13:15:53;;;;;;;1.20;0.70;;;;;;;;;;3596299;39;20092;-56
2021/08/06 13:18:21;;;;;;;1.42;0.70;;;;;;;;;;3597164;40;20063;-55
2021/08/06 13:20:48;;;;;;;1.10;0.70;;;;;;;;;;3597206;39;20052;-56
2021/08/06 13:23:16;;;;;;;2.60;0.80;;;;;;;;;;3598346;39;20063;-57
2021/08/06 13:25:44;;;;;;;2.45;0.60;;;;;;;;;;3606910;39;20051;-54
2021/08/06 13:28:12;;;;;;;0.73;0.60;;;;;;;;;;3606745;39;20047;-56
2021/08/06 13:30:41;;;;;;;0.73;0.63;;;;;;;;;;3606485;39;20076;-54
2021/08/06 13:33:10;;;;;;;2.17;0.88;;;;;;;;;;3607043;39;20059;-54
2021/08/06 13:35:38;;;;;;;0.60;0.60;;;;;;;;;;3606569;39;20063;-56
2021/08/06 13:38:05;;;;;;;29.50;12.60;;;;;;;;;;3606556;39;20087;-58
2021/08/06 13:40:35;;;;;;;10.13;5.82;;;;;;;;;;3606486;39;20079;-49
2021/08/06 13:43:03;;;;;;;12.13;7.60;;;;;;;;;;3606590;39;20060;-53
2021/08/06 13:45:32;;;;;;;3.45;1.13;;;;;;;;;;3605979;39;20051;-47
2021/08/06 13:48:02;;;;;;;0.98;0.60;;;;;;;;;;3605267;39;20059;-47
2021/08/06 13:50:29;;;;;;;1.10;0.68;;;;;;;;;;3605484;39;20071;-51
2021/08/06 13:52:56;;;;;;;1.88;1.00;;;;;;;;;;3605415;39;20098;-47
2021/08/06 13:55:24;;;;;;;2.45;0.70;;;;;;;;;;3605493;39;20051;-51
2021/08/06 13:57:52;;;;;;;1.35;0.70;;;;;;;;;;3605645;39;20051;-45
2021/08/06 14:00:19;;;;;;;1.50;0.70;;;;;;;;;;3605230;39;20161;-49
2021/08/06 14:02:47;;;;;;;1.00;0.60;;;;;;;;;;3605154;39;20117;-47
2021/08/06 14:05:15;;;;;;;0.85;0.70;;;;;;;;;;3614112;39;20062;-50
2021/08/06 14:07:42;;;;;;;2.22;0.70;;;;;;;;;;3614546;39;20058;-46
2021/08/06 14:10:10;;;;;;;1.70;0.60;;;;;;;;;;3614828;39;20055;-49
2021/08/06 14:12:38;;;;;;;1.63;0.77;;;;;;;;;;3614789;39;20066;-47
2021/08/06 14:15:06;;;;;;;1.35;0.65;;;;;;;;;;3613949;39;20074;-48
2021/08/06 14:17:33;;;;;;;0.82;0.60;;;;;;;;;;3614519;39;20063;-47
2021/08/06 14:20:01;;;;;;;1.40;0.80;;;;;;;;;;3614993;39;20131;-46
2021/08/06 14:22:28;;;;;;;1.02;0.70;;;;;;;;;;3614491;39;20051;-45
2021/08/06 14:24:55;;;;;;;1.55;0.60;;;;;;;;;;3614813;39;20047;-45
2021/08/06 14:27:22;;;;;;;2.78;0.90;;;;;;;;;;3615993;39;20055;-48
2021/08/06 14:29:51;;;;;;;1.20;0.68;;;;;;;;;;3616372;39;20039;-44
2021/08/06 14:32:18;;;;;;;1.10;0.82;;;;;;;;;;3616368;39;20099;-47
2021/08/06 14:34:47;;;;;;;1.10;0.65;;;;;;;;;;3615999;39;20108;-49
2021/08/06 14:37:14;;;;;;;1.45;0.98;;;;;;;;;;3615782;39;20059;-55
2021/08/06 14:39:42;;;;;;;253.57;167.40;;;;;;;;;;3615979;39;20414;-50
2021/08/06 14:42:11;;;;;;;16.52;10.73;;;;;;;;;;3616374;39;20144;-52
2021/08/06 14:44:41;;;;;;;3.25;1.85;;;;;;;;;;3616315;39;20051;-47
2021/08/06 14:47:08;;;;;;;1.48;0.80;;;;;;;;;;3615997;39;20047;-46
2021/08/06 14:49:35;;;;;;;2.65;0.70;;;;;;;;;;3615734;39;20408;-52
2021/08/06 14:52:04;;;;;;;2.80;0.70;;;;;;;;;;3616219;39;20634;-54
2021/08/06 14:54:33;;;;;;;1.20;0.60;;;;;;;;;;3615728;39;20054;-49
2021/08/06 14:57:04;;;;;;;2.17;0.90;;;;;;;;;;3615224;39;20047;-50
2021/08/06 14:59:32;;;;;;;2.78;0.80;;;;;;;;;;3615820;39;20436;-50
2021/08/06 15:02:01;;;;;;;1.00;0.60;;;;;;;;;;3616023;39;20055;-53
2021/08/06 15:04:29;;;;;;;0.75;0.60;;;;;;;;;;3609992;39;20066;-52
2021/08/06 15:06:56;;;;;;;0.98;0.75;;;;;;;;;;3605869;39;20137;-47